sensor_id;sensor_type;location;lat;lon;timestamp;temperature;humidity
26947;DHT22;14501;52.282;10.560;2023-05-07T00:01:53;11.00;99.90
26947;DHT22;14501;52.282;10.560;2023-05-07T00:04:19;9.60;99.90
26947;DHT22;14501;52.282;10.560;2023-05-07T00:06:44;9.70;99.90
26947;DHT22;14501;52.282;10.560;2023-05-07T00:09:10;9.60;99.90
26947;DHT22;14501;52.282;10.560;2023-05-07T00:11:36;10.80;99.90
26947;DHT22;14501;52.282;10.560;2023-05-07T00:14:01;10.70;99.90
26947;DHT22;14501;52.282;10.560;2023-05-07T00:16:27;11.00;99.90
26947;DHT22;14501;52.282;10.560;2023-05-07T00:18:53;9.60;99.90
26947;DHT22;14501;52.282;10.560;2023-05-07T00:21:19;9.60;99.90
26947;DHT22;14501;52.282;10.560;2023-05-07T00:23:44;9.60;99.90
26947;DHT22;14501;52.282;10.560;2023-05-07T00:26:10;9.50;99.90
26947;DHT22;14501;52.282;10.560;2023-05-07T00:28:35;9.50;99.90
26947;DHT22;14501;52.282;10.560;2023-05-07T00:31:01;9.60;99.90
26947;DHT22;14501;52.282;10.560;2023-05-07T00:33:27;10.40;99.90
26947;DHT22;14501;52.282;10.560;2023-05-07T00:35:52;10.20;99.90
26947;DHT22;14501;52.282;10.560;2023-05-07T00:38:19;10.10;99.90
26947;DHT22;14501;52.282;10.560;2023-05-07T00:40:45;9.60;99.90
26947;DHT22;14501;52.282;10.560;2023-05-07T00:43:11;9.60;99.90
26947;DHT22;14501;52.282;10.560;2023-05-07T00:45:38;10.00;99.90
26947;DHT22;14501;52.282;10.560;2023-05-07T00:48:04;10.00;99.90
26947;DHT22;14501;52.282;10.560;2023-05-07T00:50:30;9.60;99.90
26947;DHT22;14501;52.282;10.560;2023-05-07T00:52:56;9.50;99.90
26947;DHT22;14501;52.282;10.560;2023-05-07T00:55:23;9.80;99.90
26947;DHT22;14501;52.282;10.560;2023-05-07T00:57:49;9.50;99.90
26947;DHT22;14501;52.282;10.560;2023-05-07T01:00:16;10.30;99.90
26947;DHT22;14501;52.282;10.560;2023-05-07T01:02:42;9.50;99.90
26947;DHT22;14501;52.282;10.560;2023-05-07T01:05:09;9.50;99.90
26947;DHT22;14501;52.282;10.560;2023-05-07T01:07:37;9.50;99.90
26947;DHT22;14501;52.282;10.560;2023-05-07T01:10:05;10.30;99.90
26947;DHT22;14501;52.282;10.560;2023-05-07T01:12:31;10.00;99.90
26947;DHT22;14501;52.282;10.560;2023-05-07T01:14:58;9.30;99.90
26947;DHT22;14501;52.282;10.560;2023-05-07T01:19:50;9.40;99.90
26947;DHT22;14501;52.282;10.560;2023-05-07T01:22:34;9.40;99.90
26947;DHT22;14501;52.282;10.560;2023-05-07T01:25:00;9.40;99.90
26947;DHT22;14501;52.282;10.560;2023-05-07T01:27:27;9.40;99.90
26947;DHT22;14501;52.282;10.560;2023-05-07T01:29:52;9.70;99.90
26947;DHT22;14501;52.282;10.560;2023-05-07T01:32:27;10.20;99.90
26947;DHT22;14501;52.282;10.560;2023-05-07T01:34:55;9.40;99.90
26947;DHT22;14501;52.282;10.560;2023-05-07T01:37:21;9.50;99.90
26947;DHT22;14501;52.282;10.560;2023-05-07T01:39:48;11.00;99.90
26947;DHT22;14501;52.282;10.560;2023-05-07T01:42:13;9.30;99.90
26947;DHT22;14501;52.282;10.560;2023-05-07T01:47:06;9.30;99.90
26947;DHT22;14501;52.282;10.560;2023-05-07T01:49:31;9.30;99.90
26947;DHT22;14501;52.282;10.560;2023-05-07T01:51:58;9.30;99.90
26947;DHT22;14501;52.282;10.560;2023-05-07T01:54:26;10.40;99.90
26947;DHT22;14501;52.282;10.560;2023-05-07T01:56:58;9.30;99.90
26947;DHT22;14501;52.282;10.560;2023-05-07T01:59:24;9.60;99.90
26947;DHT22;14501;52.282;10.560;2023-05-07T02:01:50;9.80;99.90
26947;DHT22;14501;52.282;10.560;2023-05-07T02:04:15;9.30;99.90
26947;DHT22;14501;52.282;10.560;2023-05-07T02:06:41;9.60;99.90
26947;DHT22;14501;52.282;10.560;2023-05-07T02:09:06;9.40;99.90
26947;DHT22;14501;52.282;10.560;2023-05-07T02:11:34;9.40;99.90
26947;DHT22;14501;52.282;10.560;2023-05-07T02:13:59;9.80;99.90
26947;DHT22;14501;52.282;10.560;2023-05-07T02:16:25;10.40;99.90
26947;DHT22;14501;52.282;10.560;2023-05-07T02:18:51;9.30;99.90
26947;DHT22;14501;52.282;10.560;2023-05-07T02:21:16;10.40;99.90
26947;DHT22;14501;52.282;10.560;2023-05-07T02:23:42;9.40;99.90
26947;DHT22;14501;52.282;10.560;2023-05-07T02:26:07;9.30;99.90
26947;DHT22;14501;52.282;10.560;2023-05-07T02:28:33;9.30;99.90
26947;DHT22;14501;52.282;10.560;2023-05-07T02:31:03;9.30;99.90
26947;DHT22;14501;52.282;10.560;2023-05-07T02:33:28;9.40;99.90
26947;DHT22;14501;52.282;10.560;2023-05-07T02:35:54;9.40;99.90
26947;DHT22;14501;52.282;10.560;2023-05-07T02:38:19;10.20;99.90
26947;DHT22;14501;52.282;10.560;2023-05-07T02:40:45;10.90;99.90
26947;DHT22;14501;52.282;10.560;2023-05-07T02:43:11;10.80;99.90
26947;DHT22;14501;52.282;10.560;2023-05-07T02:45:36;9.20;99.90
26947;DHT22;14501;52.282;10.560;2023-05-07T02:48:03;10.90;99.90
26947;DHT22;14501;52.282;10.560;2023-05-07T02:50:29;9.20;99.90
26947;DHT22;14501;52.282;10.560;2023-05-07T02:52:55;9.70;99.90
26947;DHT22;14501;52.282;10.560;2023-05-07T02:55:20;9.20;99.90
26947;DHT22;14501;52.282;10.560;2023-05-07T02:57:46;9.20;99.90
26947;DHT22;14501;52.282;10.560;2023-05-07T03:00:15;9.60;99.90
26947;DHT22;14501;52.282;10.560;2023-05-07T03:02:41;9.20;99.90
26947;DHT22;14501;52.282;10.560;2023-05-07T03:05:07;9.20;99.90
26947;DHT22;14501;52.282;10.560;2023-05-07T03:07:33;9.20;99.90
26947;DHT22;14501;52.282;10.560;2023-05-07T03:09:59;9.20;99.90
26947;DHT22;14501;52.282;10.560;2023-05-07T03:12:24;9.20;99.90
26947;DHT22;14501;52.282;10.560;2023-05-07T03:14:50;8.80;99.90
26947;DHT22;14501;52.282;10.560;2023-05-07T03:17:16;9.10;99.90
26947;DHT22;14501;52.282;10.560;2023-05-07T03:19:41;8.90;99.90
26947;DHT22;14501;52.282;10.560;2023-05-07T03:22:07;9.60;99.90
26947;DHT22;14501;52.282;10.560;2023-05-07T03:24:32;9.00;99.90
26947;DHT22;14501;52.282;10.560;2023-05-07T03:26:58;9.10;99.90
26947;DHT22;14501;52.282;10.560;2023-05-07T03:29:24;9.00;99.90
26947;DHT22;14501;52.282;10.560;2023-05-07T03:31:49;9.00;99.90
26947;DHT22;14501;52.282;10.560;2023-05-07T03:34:15;9.00;99.90
26947;DHT22;14501;52.282;10.560;2023-05-07T03:36:42;9.10;99.90
26947;DHT22;14501;52.282;10.560;2023-05-07T03:39:08;9.00;99.90
26947;DHT22;14501;52.282;10.560;2023-05-07T03:41:33;9.40;99.90
26947;DHT22;14501;52.282;10.560;2023-05-07T03:48:51;9.00;99.90
26947;DHT22;14501;52.282;10.560;2023-05-07T03:51:17;9.00;99.90
26947;DHT22;14501;52.282;10.560;2023-05-07T03:53:43;9.00;99.90
26947;DHT22;14501;52.282;10.560;2023-05-07T03:56:08;9.00;99.90
26947;DHT22;14501;52.282;10.560;2023-05-07T03:58:34;9.00;99.90
26947;DHT22;14501;52.282;10.560;2023-05-07T04:01:00;9.00;99.90
26947;DHT22;14501;52.282;10.560;2023-05-07T04:03:26;9.00;99.90
26947;DHT22;14501;52.282;10.560;2023-05-07T04:05:51;11.10;99.90
26947;DHT22;14501;52.282;10.560;2023-05-07T04:08:17;9.00;99.90
26947;DHT22;14501;52.282;10.560;2023-05-07T04:10:42;11.00;99.90
26947;DHT22;14501;52.282;10.560;2023-05-07T04:13:08;10.30;99.90
26947;DHT22;14501;52.282;10.560;2023-05-07T04:15:35;9.00;99.90
26947;DHT22;14501;52.282;10.560;2023-05-07T04:18:01;10.20;99.90
26947;DHT22;14501;52.282;10.560;2023-05-07T04:20:26;9.00;99.90
26947;DHT22;14501;52.282;10.560;2023-05-07T04:22:52;10.90;99.90
26947;DHT22;14501;52.282;10.560;2023-05-07T04:25:17;10.40;99.90
26947;DHT22;14501;52.282;10.560;2023-05-07T04:27:43;10.90;99.90
26947;DHT22;14501;52.282;10.560;2023-05-07T04:30:09;9.10;99.90
26947;DHT22;14501;52.282;10.560;2023-05-07T04:32:34;9.10;99.90
26947;DHT22;14501;52.282;10.560;2023-05-07T04:35:01;9.00;99.90
26947;DHT22;14501;52.282;10.560;2023-05-07T04:37:27;9.10;99.90
26947;DHT22;14501;52.282;10.560;2023-05-07T04:39:52;9.40;99.90
26947;DHT22;14501;52.282;10.560;2023-05-07T04:42:18;9.10;99.90
26947;DHT22;14501;52.282;10.560;2023-05-07T04:44:44;9.10;99.90
26947;DHT22;14501;52.282;10.560;2023-05-07T04:47:13;9.10;99.90
26947;DHT22;14501;52.282;10.560;2023-05-07T04:49:39;9.20;99.90
26947;DHT22;14501;52.282;10.560;2023-05-07T04:52:04;9.20;99.90
26947;DHT22;14501;52.282;10.560;2023-05-07T04:54:30;9.20;99.90
26947;DHT22;14501;52.282;10.560;2023-05-07T04:56:56;9.40;99.90
26947;DHT22;14501;52.282;10.560;2023-05-07T04:59:22;9.30;99.90
26947;DHT22;14501;52.282;10.560;2023-05-07T05:01:47;9.60;99.90
26947;DHT22;14501;52.282;10.560;2023-05-07T05:04:13;9.40;99.90
26947;DHT22;14501;52.282;10.560;2023-05-07T05:06:39;10.00;99.90
26947;DHT22;14501;52.282;10.560;2023-05-07T05:09:05;10.30;99.90
26947;DHT22;14501;52.282;10.560;2023-05-07T05:11:31;9.70;99.90
26947;DHT22;14501;52.282;10.560;2023-05-07T05:13:58;9.60;99.90
26947;DHT22;14501;52.282;10.560;2023-05-07T05:16:24;9.70;99.90
26947;DHT22;14501;52.282;10.560;2023-05-07T05:18:49;9.70;99.90
26947;DHT22;14501;52.282;10.560;2023-05-07T05:21:17;9.80;99.90
26947;DHT22;14501;52.282;10.560;2023-05-07T05:23:43;10.00;99.90
26947;DHT22;14501;52.282;10.560;2023-05-07T05:26:08;10.70;99.90
26947;DHT22;14501;52.282;10.560;2023-05-07T05:28:34;9.70;99.90
26947;DHT22;14501;52.282;10.560;2023-05-07T05:30:59;9.60;99.90
26947;DHT22;14501;52.282;10.560;2023-05-07T05:33:25;10.30;99.90
26947;DHT22;14501;52.282;10.560;2023-05-07T05:35:50;9.60;99.90
26947;DHT22;14501;52.282;10.560;2023-05-07T05:38:16;9.50;99.90
26947;DHT22;14501;52.282;10.560;2023-05-07T05:40:42;9.70;99.90
26947;DHT22;14501;52.282;10.560;2023-05-07T05:43:07;9.70;99.90
26947;DHT22;14501;52.282;10.560;2023-05-07T05:45:33;9.80;99.90
26947;DHT22;14501;52.282;10.560;2023-05-07T05:47:58;11.90;99.90
26947;DHT22;14501;52.282;10.560;2023-05-07T05:50:24;10.70;99.90
26947;DHT22;14501;52.282;10.560;2023-05-07T05:52:50;9.70;99.90
26947;DHT22;14501;52.282;10.560;2023-05-07T05:55:16;11.00;99.90
26947;DHT22;14501;52.282;10.560;2023-05-07T05:57:41;9.80;99.90
26947;DHT22;14501;52.282;10.560;2023-05-07T06:00:08;11.40;99.90
26947;DHT22;14501;52.282;10.560;2023-05-07T06:02:33;9.80;99.90
26947;DHT22;14501;52.282;10.560;2023-05-07T06:04:59;11.70;99.90
26947;DHT22;14501;52.282;10.560;2023-05-07T06:14:43;9.80;99.90
26947;DHT22;14501;52.282;10.560;2023-05-07T06:19:35;10.00;99.90
26947;DHT22;14501;52.282;10.560;2023-05-07T06:22:01;10.00;99.90
26947;DHT22;14501;52.282;10.560;2023-05-07T06:24:27;10.10;99.90
26947;DHT22;14501;52.282;10.560;2023-05-07T06:26:53;10.20;99.90
26947;DHT22;14501;52.282;10.560;2023-05-07T06:29:19;10.50;99.90
26947;DHT22;14501;52.282;10.560;2023-05-07T06:31:44;10.50;99.90
26947;DHT22;14501;52.282;10.560;2023-05-07T06:34:10;10.30;99.90
26947;DHT22;14501;52.282;10.560;2023-05-07T06:36:39;10.30;99.90
26947;DHT22;14501;52.282;10.560;2023-05-07T06:39:05;10.30;99.90
26947;DHT22;14501;52.282;10.560;2023-05-07T06:41:31;10.30;99.90
26947;DHT22;14501;52.282;10.560;2023-05-07T06:43:57;11.40;99.90
26947;DHT22;14501;52.282;10.560;2023-05-07T06:46:22;10.50;99.90
26947;DHT22;14501;52.282;10.560;2023-05-07T06:48:48;10.70;99.90
26947;DHT22;14501;52.282;10.560;2023-05-07T06:53:39;10.60;99.90
26947;DHT22;14501;52.282;10.560;2023-05-07T06:56:05;10.70;99.90
26947;DHT22;14501;52.282;10.560;2023-05-07T06:58:31;10.60;99.90
26947;DHT22;14501;52.282;10.560;2023-05-07T07:00:57;10.70;99.90
26947;DHT22;14501;52.282;10.560;2023-05-07T07:03:23;10.90;99.90
26947;DHT22;14501;52.282;10.560;2023-05-07T07:05:52;11.80;99.90
26947;DHT22;14501;52.282;10.560;2023-05-07T07:10:46;10.90;99.90
26947;DHT22;14501;52.282;10.560;2023-05-07T07:13:12;11.50;99.90
26947;DHT22;14501;52.282;10.560;2023-05-07T07:15:37;10.80;99.90
26947;DHT22;14501;52.282;10.560;2023-05-07T07:18:03;11.50;99.90
26947;DHT22;14501;52.282;10.560;2023-05-07T07:20:29;10.70;99.90
26947;DHT22;14501;52.282;10.560;2023-05-07T07:22:55;10.70;99.90
26947;DHT22;14501;52.282;10.560;2023-05-07T07:25:20;11.20;99.90
26947;DHT22;14501;52.282;10.560;2023-05-07T07:27:46;10.90;99.90
26947;DHT22;14501;52.282;10.560;2023-05-07T07:30:11;11.70;99.90
26947;DHT22;14501;52.282;10.560;2023-05-07T07:32:37;10.90;99.90
26947;DHT22;14501;52.282;10.560;2023-05-07T07:35:03;11.60;99.90
26947;DHT22;14501;52.282;10.560;2023-05-07T07:39:55;10.50;99.90
26947;DHT22;14501;52.282;10.560;2023-05-07T07:42:20;10.50;99.90
26947;DHT22;14501;52.282;10.560;2023-05-07T07:44:46;11.80;99.90
26947;DHT22;14501;52.282;10.560;2023-05-07T07:47:12;10.50;99.90
26947;DHT22;14501;52.282;10.560;2023-05-07T07:49:38;10.40;99.90
26947;DHT22;14501;52.282;10.560;2023-05-07T07:54:30;10.50;99.90
26947;DHT22;14501;52.282;10.560;2023-05-07T07:56:55;10.70;99.90
26947;DHT22;14501;52.282;10.560;2023-05-07T08:01:47;10.40;99.90
26947;DHT22;14501;52.282;10.560;2023-05-07T08:04:15;11.60;99.90
26947;DHT22;14501;52.282;10.560;2023-05-07T08:06:41;10.60;99.90
26947;DHT22;14501;52.282;10.560;2023-05-07T08:09:07;10.70;99.90
26947;DHT22;14501;52.282;10.560;2023-05-07T08:11:33;10.90;99.90
26947;DHT22;14501;52.282;10.560;2023-05-07T08:13:59;11.30;99.90
26947;DHT22;14501;52.282;10.560;2023-05-07T08:16:25;11.50;99.90
26947;DHT22;14501;52.282;10.560;2023-05-07T08:18:50;11.30;99.90
26947;DHT22;14501;52.282;10.560;2023-05-07T08:21:16;11.30;99.90
26947;DHT22;14501;52.282;10.560;2023-05-07T08:23:41;11.50;99.90
26947;DHT22;14501;52.282;10.560;2023-05-07T08:26:08;11.50;99.90
26947;DHT22;14501;52.282;10.560;2023-05-07T08:28:33;11.60;99.90
26947;DHT22;14501;52.282;10.560;2023-05-07T08:30:59;11.70;99.90
26947;DHT22;14501;52.282;10.560;2023-05-07T08:33:26;12.10;99.90
26947;DHT22;14501;52.282;10.560;2023-05-07T08:35:52;11.80;99.90
26947;DHT22;14501;52.282;10.560;2023-05-07T08:38:18;11.80;99.90
26947;DHT22;14501;52.282;10.560;2023-05-07T08:40:43;11.80;99.90
26947;DHT22;14501;52.282;10.560;2023-05-07T08:43:14;11.90;99.90
26947;DHT22;14501;52.282;10.560;2023-05-07T08:45:40;13.00;99.90
26947;DHT22;14501;52.282;10.560;2023-05-07T08:48:14;12.00;99.90
26947;DHT22;14501;52.282;10.560;2023-05-07T08:50:40;12.20;99.90
26947;DHT22;14501;52.282;10.560;2023-05-07T08:53:06;12.30;99.90
26947;DHT22;14501;52.282;10.560;2023-05-07T08:55:32;12.40;99.90
26947;DHT22;14501;52.282;10.560;2023-05-07T08:57:59;12.40;99.90
26947;DHT22;14501;52.282;10.560;2023-05-07T09:00:24;12.50;99.90
26947;DHT22;14501;52.282;10.560;2023-05-07T09:02:50;12.50;99.90
26947;DHT22;14501;52.282;10.560;2023-05-07T09:05:16;12.60;99.90
26947;DHT22;14501;52.282;10.560;2023-05-07T09:07:41;12.30;99.90
26947;DHT22;14501;52.282;10.560;2023-05-07T09:10:07;12.30;99.90
26947;DHT22;14501;52.282;10.560;2023-05-07T09:12:33;12.30;99.90
26947;DHT22;14501;52.282;10.560;2023-05-07T09:15:00;12.30;99.90
26947;DHT22;14501;52.282;10.560;2023-05-07T09:17:26;12.30;99.90
26947;DHT22;14501;52.282;10.560;2023-05-07T09:19:52;12.30;99.90
26947;DHT22;14501;52.282;10.560;2023-05-07T09:22:19;12.40;99.90
26947;DHT22;14501;52.282;10.560;2023-05-07T09:24:48;12.30;99.90
26947;DHT22;14501;52.282;10.560;2023-05-07T09:27:14;12.50;99.90
26947;DHT22;14501;52.282;10.560;2023-05-07T09:29:41;12.50;99.90
26947;DHT22;14501;52.282;10.560;2023-05-07T09:32:07;12.50;99.90
26947;DHT22;14501;52.282;10.560;2023-05-07T09:34:34;12.50;99.90
26947;DHT22;14501;52.282;10.560;2023-05-07T09:37:05;12.60;99.90
26947;DHT22;14501;52.282;10.560;2023-05-07T09:39:45;12.70;99.90
26947;DHT22;14501;52.282;10.560;2023-05-07T09:42:12;12.80;99.90
26947;DHT22;14501;52.282;10.560;2023-05-07T09:44:38;13.00;99.90
26947;DHT22;14501;52.282;10.560;2023-05-07T09:47:05;13.20;99.90
26947;DHT22;14501;52.282;10.560;2023-05-07T09:49:34;13.50;99.90
26947;DHT22;14501;52.282;10.560;2023-05-07T09:52:02;13.70;99.90
26947;DHT22;14501;52.282;10.560;2023-05-07T09:54:33;13.70;99.90
26947;DHT22;14501;52.282;10.560;2023-05-07T09:57:04;13.70;99.90
26947;DHT22;14501;52.282;10.560;2023-05-07T09:59:31;13.80;99.90
26947;DHT22;14501;52.282;10.560;2023-05-07T10:01:59;13.90;99.90
26947;DHT22;14501;52.282;10.560;2023-05-07T10:04:26;14.20;99.90
26947;DHT22;14501;52.282;10.560;2023-05-07T10:09:19;14.90;99.90
26947;DHT22;14501;52.282;10.560;2023-05-07T10:11:45;15.40;99.90
26947;DHT22;14501;52.282;10.560;2023-05-07T10:14:11;15.70;99.90
26947;DHT22;14501;52.282;10.560;2023-05-07T10:16:37;15.60;99.90
26947;DHT22;14501;52.282;10.560;2023-05-07T10:19:04;15.40;99.90
26947;DHT22;14501;52.282;10.560;2023-05-07T10:24:05;14.30;99.90
26947;DHT22;14501;52.282;10.560;2023-05-07T10:26:36;14.40;99.90
26947;DHT22;14501;52.282;10.560;2023-05-07T10:34:24;13.70;99.90
26947;DHT22;14501;52.282;10.560;2023-05-07T10:36:52;13.50;99.90
26947;DHT22;14501;52.282;10.560;2023-05-07T10:39:20;13.10;99.90
26947;DHT22;14501;52.282;10.560;2023-05-07T10:41:47;13.10;99.90
26947;DHT22;14501;52.282;10.560;2023-05-07T10:44:25;13.20;99.90
26947;DHT22;14501;52.282;10.560;2023-05-07T10:47:06;13.10;99.90
26947;DHT22;14501;52.282;10.560;2023-05-07T10:52:17;12.90;99.90
26947;DHT22;14501;52.282;10.560;2023-05-07T10:54:43;12.80;99.90
26947;DHT22;14501;52.282;10.560;2023-05-07T10:59:57;13.30;99.90
26947;DHT22;14501;52.282;10.560;2023-05-07T11:02:23;13.80;99.90
26947;DHT22;14501;52.282;10.560;2023-05-07T11:05:21;14.10;99.90
26947;DHT22;14501;52.282;10.560;2023-05-07T11:08:00;14.10;99.90
26947;DHT22;14501;52.282;10.560;2023-05-07T11:13:16;14.00;99.90
26947;DHT22;14501;52.282;10.560;2023-05-07T11:15:47;13.80;99.90
26947;DHT22;14501;52.282;10.560;2023-05-07T11:18:15;13.90;99.90
26947;DHT22;14501;52.282;10.560;2023-05-07T11:26:01;14.80;99.90
26947;DHT22;14501;52.282;10.560;2023-05-07T11:28:28;14.80;99.90
26947;DHT22;14501;52.282;10.560;2023-05-07T11:30:56;14.80;99.90
26947;DHT22;14501;52.282;10.560;2023-05-07T11:35:48;15.00;99.90
26947;DHT22;14501;52.282;10.560;2023-05-07T11:38:15;15.00;99.90
26947;DHT22;14501;52.282;10.560;2023-05-07T11:40:49;15.00;99.90
26947;DHT22;14501;52.282;10.560;2023-05-07T11:43:16;14.70;99.90
26947;DHT22;14501;52.282;10.560;2023-05-07T11:45:41;14.70;99.90
26947;DHT22;14501;52.282;10.560;2023-05-07T11:48:07;14.80;99.90
26947;DHT22;14501;52.282;10.560;2023-05-07T11:50:33;15.20;99.90
26947;DHT22;14501;52.282;10.560;2023-05-07T11:52:58;14.50;99.90
26947;DHT22;14501;52.282;10.560;2023-05-07T11:55:24;14.40;99.90
26947;DHT22;14501;52.282;10.560;2023-05-07T12:00:17;14.30;99.90
26947;DHT22;14501;52.282;10.560;2023-05-07T12:02:45;14.30;99.90
26947;DHT22;14501;52.282;10.560;2023-05-07T12:05:11;14.80;99.90
26947;DHT22;14501;52.282;10.560;2023-05-07T12:10:06;14.10;99.90
26947;DHT22;14501;52.282;10.560;2023-05-07T12:12:41;14.00;99.90
26947;DHT22;14501;52.282;10.560;2023-05-07T12:15:09;14.10;99.90
26947;DHT22;14501;52.282;10.560;2023-05-07T12:17:36;14.10;99.90
26947;DHT22;14501;52.282;10.560;2023-05-07T12:20:02;14.00;99.90
26947;DHT22;14501;52.282;10.560;2023-05-07T12:22:28;14.10;99.90
26947;DHT22;14501;52.282;10.560;2023-05-07T12:24:58;14.10;99.90
26947;DHT22;14501;52.282;10.560;2023-05-07T12:27:23;14.00;99.90
26947;DHT22;14501;52.282;10.560;2023-05-07T12:29:50;14.00;99.90
26947;DHT22;14501;52.282;10.560;2023-05-07T12:32:20;13.50;99.90
26947;DHT22;14501;52.282;10.560;2023-05-07T12:34:52;13.50;99.90
26947;DHT22;14501;52.282;10.560;2023-05-07T12:37:23;13.70;99.90
26947;DHT22;14501;52.282;10.560;2023-05-07T12:40:02;13.70;99.90
26947;DHT22;14501;52.282;10.560;2023-05-07T12:42:35;13.90;99.90
26947;DHT22;14501;52.282;10.560;2023-05-07T12:45:11;13.90;99.90
26947;DHT22;14501;52.282;10.560;2023-05-07T12:47:38;14.10;99.90
26947;DHT22;14501;52.282;10.560;2023-05-07T12:50:06;14.10;99.90
26947;DHT22;14501;52.282;10.560;2023-05-07T12:52:32;14.30;99.90
26947;DHT22;14501;52.282;10.560;2023-05-07T12:55:05;14.30;99.90
26947;DHT22;14501;52.282;10.560;2023-05-07T12:57:47;14.40;99.90
26947;DHT22;14501;52.282;10.560;2023-05-07T13:00:14;14.20;99.90
26947;DHT22;14501;52.282;10.560;2023-05-07T13:02:41;14.30;99.90
26947;DHT22;14501;52.282;10.560;2023-05-07T13:05:09;14.40;99.90
26947;DHT22;14501;52.282;10.560;2023-05-07T13:07:35;14.20;99.90
26947;DHT22;14501;52.282;10.560;2023-05-07T13:10:02;14.10;99.90
26947;DHT22;14501;52.282;10.560;2023-05-07T13:12:28;13.90;99.90
26947;DHT22;14501;52.282;10.560;2023-05-07T13:17:19;13.80;99.90
26947;DHT22;14501;52.282;10.560;2023-05-07T13:19:45;13.90;99.90
26947;DHT22;14501;52.282;10.560;2023-05-07T13:22:10;14.10;99.90
26947;DHT22;14501;52.282;10.560;2023-05-07T13:24:36;14.10;99.90
26947;DHT22;14501;52.282;10.560;2023-05-07T13:29:28;14.10;99.90
26947;DHT22;14501;52.282;10.560;2023-05-07T13:31:59;14.10;99.90
26947;DHT22;14501;52.282;10.560;2023-05-07T13:34:25;14.00;99.90
26947;DHT22;14501;52.282;10.560;2023-05-07T13:36:50;14.00;99.90
26947;DHT22;14501;52.282;10.560;2023-05-07T13:39:16;14.20;99.90
26947;DHT22;14501;52.282;10.560;2023-05-07T13:41:42;14.20;99.90
26947;DHT22;14501;52.282;10.560;2023-05-07T13:44:07;14.50;99.90
26947;DHT22;14501;52.282;10.560;2023-05-07T13:46:33;14.80;99.90
26947;DHT22;14501;52.282;10.560;2023-05-07T13:48:58;14.90;99.90
26947;DHT22;14501;52.282;10.560;2023-05-07T13:51:24;14.90;99.90
26947;DHT22;14501;52.282;10.560;2023-05-07T13:53:51;15.10;99.90
26947;DHT22;14501;52.282;10.560;2023-05-07T13:56:17;15.10;99.90
26947;DHT22;14501;52.282;10.560;2023-05-07T13:58:43;15.00;99.90
26947;DHT22;14501;52.282;10.560;2023-05-07T14:01:09;15.00;99.90
26947;DHT22;14501;52.282;10.560;2023-05-07T14:06:03;14.70;99.90
26947;DHT22;14501;52.282;10.560;2023-05-07T14:10:55;14.40;99.90
26947;DHT22;14501;52.282;10.560;2023-05-07T14:13:20;14.20;99.90
26947;DHT22;14501;52.282;10.560;2023-05-07T14:15:46;14.30;99.90
26947;DHT22;14501;52.282;10.560;2023-05-07T14:20:39;14.60;99.90
26947;DHT22;14501;52.282;10.560;2023-05-07T14:23:05;14.70;99.90
26947;DHT22;14501;52.282;10.560;2023-05-07T14:25:30;14.70;99.90
26947;DHT22;14501;52.282;10.560;2023-05-07T14:27:56;14.70;99.90
26947;DHT22;14501;52.282;10.560;2023-05-07T14:30:21;14.70;99.90
26947;DHT22;14501;52.282;10.560;2023-05-07T14:32:50;14.80;99.90
26947;DHT22;14501;52.282;10.560;2023-05-07T14:35:16;14.70;99.90
26947;DHT22;14501;52.282;10.560;2023-05-07T14:37:41;14.50;99.90
26947;DHT22;14501;52.282;10.560;2023-05-07T14:40:07;14.50;99.90
26947;DHT22;14501;52.282;10.560;2023-05-07T14:42:33;14.40;99.90
26947;DHT22;14501;52.282;10.560;2023-05-07T14:44:59;14.50;99.90
26947;DHT22;14501;52.282;10.560;2023-05-07T14:47:24;14.60;99.90
26947;DHT22;14501;52.282;10.560;2023-05-07T14:49:50;14.70;99.90
26947;DHT22;14501;52.282;10.560;2023-05-07T14:52:15;14.60;99.90
26947;DHT22;14501;52.282;10.560;2023-05-07T14:54:41;14.60;99.90
26947;DHT22;14501;52.282;10.560;2023-05-07T14:57:09;14.50;99.90
26947;DHT22;14501;52.282;10.560;2023-05-07T14:59:35;14.40;99.90
26947;DHT22;14501;52.282;10.560;2023-05-07T15:02:01;14.20;99.90
26947;DHT22;14501;52.282;10.560;2023-05-07T15:04:27;14.00;99.90
26947;DHT22;14501;52.282;10.560;2023-05-07T15:06:52;13.80;99.90
26947;DHT22;14501;52.282;10.560;2023-05-07T15:11:47;13.60;99.90
26947;DHT22;14501;52.282;10.560;2023-05-07T15:14:12;13.50;99.90
26947;DHT22;14501;52.282;10.560;2023-05-07T15:16:38;13.40;99.90
26947;DHT22;14501;52.282;10.560;2023-05-07T15:19:04;13.40;99.90
26947;DHT22;14501;52.282;10.560;2023-05-07T15:21:29;13.30;99.90
26947;DHT22;14501;52.282;10.560;2023-05-07T15:23:58;13.30;99.90
26947;DHT22;14501;52.282;10.560;2023-05-07T15:26:23;13.30;99.90
26947;DHT22;14501;52.282;10.560;2023-05-07T15:28:49;13.40;99.90
26947;DHT22;14501;52.282;10.560;2023-05-07T15:31:15;13.50;99.90
26947;DHT22;14501;52.282;10.560;2023-05-07T15:33:41;13.70;99.90
26947;DHT22;14501;52.282;10.560;2023-05-07T15:36:07;14.00;99.90
26947;DHT22;14501;52.282;10.560;2023-05-07T15:38:33;14.40;99.90
26947;DHT22;14501;52.282;10.560;2023-05-07T15:40:58;14.50;99.90
26947;DHT22;14501;52.282;10.560;2023-05-07T15:43:24;14.70;99.90
26947;DHT22;14501;52.282;10.560;2023-05-07T15:45:50;14.90;99.90
26947;DHT22;14501;52.282;10.560;2023-05-07T15:48:16;14.90;99.90
26947;DHT22;14501;52.282;10.560;2023-05-07T15:50:42;14.70;99.90
26947;DHT22;14501;52.282;10.560;2023-05-07T15:55:34;14.50;99.90
26947;DHT22;14501;52.282;10.560;2023-05-07T15:58:00;14.20;99.90
26947;DHT22;14501;52.282;10.560;2023-05-07T16:00:27;14.30;99.90
26947;DHT22;14501;52.282;10.560;2023-05-07T16:05:19;13.90;99.90
26947;DHT22;14501;52.282;10.560;2023-05-07T16:10:11;13.70;99.90
26947;DHT22;14501;52.282;10.560;2023-05-07T16:12:36;13.70;99.90
26947;DHT22;14501;52.282;10.560;2023-05-07T16:15:02;13.80;99.90
26947;DHT22;14501;52.282;10.560;2023-05-07T16:17:28;14.30;99.90
26947;DHT22;14501;52.282;10.560;2023-05-07T16:19:53;13.70;99.90
26947;DHT22;14501;52.282;10.560;2023-05-07T16:22:19;13.70;99.90
26947;DHT22;14501;52.282;10.560;2023-05-07T16:24:45;13.70;99.90
26947;DHT22;14501;52.282;10.560;2023-05-07T16:27:10;13.70;99.90
26947;DHT22;14501;52.282;10.560;2023-05-07T16:29:36;13.70;99.90
26947;DHT22;14501;52.282;10.560;2023-05-07T16:32:01;13.60;99.90
26947;DHT22;14501;52.282;10.560;2023-05-07T16:34:27;13.60;99.90
26947;DHT22;14501;52.282;10.560;2023-05-07T16:36:53;13.50;99.90
26947;DHT22;14501;52.282;10.560;2023-05-07T16:39:18;13.40;99.90
26947;DHT22;14501;52.282;10.560;2023-05-07T16:41:44;13.30;99.90